Time;durP1;ratioP1;P1;durP2;ratioP2;P2;SDS_P1;SDS_P2;PMS_P1;PMS_P2;Temp;Humidity;BMP_temperature;BMP_pressure;BME280_temperature;BME280_humidity;BME280_pressure;Samples;Min_cycle;Max_cycle;Signal;HPM_P1;HPM_P2
2022/04/30 00:00:05;;;;;;;1.88;0.85;;;12.40;53.30;;;;;;5113233;28;20078;-63
2022/04/30 00:02:31;;;;;;;2.72;1.05;;;12.40;53.30;;;;;;5111745;28;20048;-64
2022/04/30 00:04:57;;;;;;;1.55;0.90;;;12.40;53.30;;;;;;5111847;28;20578;-67
2022/04/30 00:07:22;;;;;;;1.35;0.68;;;12.40;53.30;;;;;;5111718;28;20047;-63
2022/04/30 00:09:49;;;;;;;0.85;0.70;;;12.40;53.30;;;;;;5111807;28;20032;-67
2022/04/30 00:12:16;;;;;;;1.55;0.98;;;12.40;53.30;;;;;;5111920;28;20114;-64
2022/04/30 00:14:44;;;;;;;1.52;1.00;;;12.30;53.30;;;;;;5111968;28;20061;-63
2022/04/30 00:17:10;;;;;;;1.10;0.68;;;12.30;53.30;;;;;;5113177;28;20046;-63
2022/04/30 00:19:39;;;;;;;2.00;1.02;;;12.30;53.30;;;;;;5111322;28;20130;-63
2022/04/30 00:22:05;;;;;;;0.80;0.70;;;12.30;53.30;;;;;;5111440;28;20058;-63
2022/04/30 00:24:31;;;;;;;1.30;0.70;;;12.30;53.30;;;;;;5111850;28;20031;-67
2022/04/30 00:26:58;;;;;;;1.17;0.82;;;12.30;53.30;;;;;;5111747;28;20118;-62
2022/04/30 00:29:24;;;;;;;1.95;0.93;;;12.30;53.30;;;;;;5111680;28;20039;-67
2022/04/30 00:31:50;;;;;;;1.30;1.08;;;12.30;53.40;;;;;;5113129;28;20114;-65
2022/04/30 00:34:16;;;;;;;1.65;0.90;;;12.30;53.40;;;;;;5111369;28;20047;-67
2022/04/30 00:36:42;;;;;;;2.00;0.80;;;12.30;53.40;;;;;;5111398;28;20039;-63
2022/04/30 00:39:07;;;;;;;2.10;1.10;;;12.30;53.50;;;;;;5111696;28;20044;-62
2022/04/30 00:41:33;;;;;;;1.60;1.13;;;12.30;53.50;;;;;;5111309;28;20032;-69
2022/04/30 00:44:00;;;;;;;1.42;1.10;;;12.30;53.50;;;;;;5112493;28;20046;-67
2022/04/30 00:46:27;;;;;;;1.20;0.80;;;12.30;53.60;;;;;;5111453;28;20043;-62
2022/04/30 00:48:57;;;;;;;2.03;0.85;;;12.30;53.60;;;;;;5094620;28;20054;-63
2022/04/30 00:51:26;;;;;;;2.80;1.17;;;12.20;53.50;;;;;;5111446;28;20038;-63
2022/04/30 00:53:53;;;;;;;1.50;1.02;;;12.20;53.60;;;;;;5111483;28;20051;-67
2022/04/30 00:56:48;;;;;;;1.73;1.40;;;12.20;53.60;;;;;;5111138;28;20039;-69
2022/04/30 00:59:18;;;;;;;1.52;1.10;;;12.20;53.60;;;;;;5110499;28;20047;-67
2022/04/30 01:01:45;;;;;;;1.95;1.02;;;12.20;53.60;;;;;;5110653;28;20071;-67
2022/04/30 01:04:12;;;;;;;1.40;0.77;;;12.20;53.60;;;;;;5111148;28;20044;-68
2022/04/30 01:06:49;;;;;;;1.98;0.80;;;12.20;53.60;;;;;;5112269;28;20054;-66
2022/04/30 01:09:18;;;;;;;1.52;1.05;;;12.20;53.70;;;;;;5111157;28;20032;-67
2022/04/30 01:11:47;;;;;;;2.15;1.20;;;12.20;53.60;;;;;;5110963;28;20031;-65
2022/04/30 01:14:13;;;;;;;2.78;1.23;;;12.20;53.70;;;;;;5111159;28;20050;-63
2022/04/30 01:16:40;;;;;;;1.30;0.95;;;12.20;53.70;;;;;;5110891;28;20036;-64
2022/04/30 01:19:07;;;;;;;3.67;1.30;;;12.20;53.70;;;;;;5110864;28;20044;-67
2022/04/30 01:21:35;;;;;;;2.00;1.23;;;12.20;53.70;;;;;;5111063;28;20051;-67
2022/04/30 01:24:02;;;;;;;2.45;0.90;;;12.20;53.70;;;;;;5111993;28;20044;-62
2022/04/30 01:26:28;;;;;;;3.70;1.30;;;12.20;53.80;;;;;;5110876;28;20055;-63
2022/04/30 01:28:54;;;;;;;1.60;0.98;;;12.20;53.80;;;;;;5112039;28;20036;-62
2022/04/30 01:37:25;;;;;;;1.60;1.13;;;12.10;53.70;;;;;;5110473;28;20051;-67
2022/04/30 01:39:39;;;;;;;1.30;0.90;;;12.10;53.80;;;;;;5110865;28;20402;-66
2022/04/30 01:42:11;;;;;;;2.45;1.15;;;12.10;53.80;;;;;;5111933;28;20043;-63
2022/04/30 01:44:38;;;;;;;4.40;1.20;;;12.10;53.80;;;;;;5110640;28;20044;-63
2022/04/30 01:47:04;;;;;;;1.50;1.20;;;12.10;53.80;;;;;;5110582;28;20050;-63
2022/04/30 01:49:30;;;;;;;1.50;1.40;;;12.10;53.80;;;;;;5111944;28;20031;-67
2022/04/30 01:51:55;;;;;;;1.73;1.20;;;12.10;53.80;;;;;;5112081;28;20122;-67
2022/04/30 01:54:21;;;;;;;1.55;0.90;;;12.10;53.80;;;;;;5111986;28;20039;-62
2022/04/30 01:56:47;;;;;;;1.63;1.00;;;12.10;53.90;;;;;;5110845;28;20092;-65
2022/04/30 01:59:12;;;;;;;1.92;1.08;;;12.10;53.90;;;;;;5111844;28;20544;-62
2022/04/30 02:01:39;;;;;;;2.72;1.15;;;12.10;53.90;;;;;;5111340;28;20031;-66
2022/04/30 02:04:05;;;;;;;1.85;1.40;;;12.10;53.90;;;;;;5112039;28;20089;-67
2022/04/30 02:06:32;;;;;;;1.83;1.00;;;12.10;53.90;;;;;;5110418;28;20043;-63
2022/04/30 02:08:59;;;;;;;1.85;0.90;;;12.10;54.70;;;;;;5110758;28;20042;-67
2022/04/30 02:11:25;;;;;;;1.90;1.15;;;12.00;53.90;;;;;;5114052;28;20032;-68
2022/04/30 02:13:53;;;;;;;1.55;1.33;;;12.10;53.90;;;;;;5114134;28;20483;-67
2022/04/30 02:16:22;;;;;;;1.88;1.67;;;12.10;54.00;;;;;;5113944;28;20075;-67
2022/04/30 02:18:50;;;;;;;2.72;1.40;;;12.00;53.90;;;;;;5115376;28;20085;-63
2022/04/30 02:21:20;;;;;;;2.95;1.52;;;12.00;54.00;;;;;;5113925;28;20040;-66
2022/04/30 02:23:47;;;;;;;2.20;1.40;;;12.00;53.90;;;;;;5113935;28;20105;-63
2022/04/30 02:26:14;;;;;;;1.95;0.90;;;12.00;54.00;;;;;;5114126;28;20443;-67
2022/04/30 02:28:40;;;;;;;4.22;1.45;;;12.00;54.00;;;;;;5115608;28;20075;-63
2022/04/30 02:31:05;;;;;;;1.60;1.27;;;12.00;53.90;;;;;;5113749;28;20067;-67
2022/04/30 02:33:31;;;;;;;2.00;0.88;;;12.00;54.00;;;;;;5113735;28;20368;-63
2022/04/30 02:35:58;;;;;;;1.50;1.17;;;12.00;54.00;;;;;;5113637;28;20047;-67
2022/04/30 02:38:26;;;;;;;1.30;1.08;;;12.00;54.00;;;;;;5113683;28;20048;-63
2022/04/30 02:40:52;;;;;;;1.35;1.20;;;12.00;54.00;;;;;;5113726;28;20368;-62
2022/04/30 02:43:19;;;;;;;2.00;1.27;;;12.00;54.10;;;;;;5113594;28;20050;-67
2022/04/30 02:45:49;;;;;;;1.90;1.00;;;12.00;54.00;;;;;;5113638;28;20436;-62
2022/04/30 02:48:15;;;;;;;2.33;1.45;;;12.00;54.80;;;;;;5115256;28;20055;-67
2022/04/30 02:50:41;;;;;;;2.22;1.50;;;12.00;54.10;;;;;;5113722;28;20068;-63
2022/04/30 02:53:07;;;;;;;2.15;1.10;;;12.00;54.10;;;;;;5113622;28;20130;-69
2022/04/30 02:55:33;;;;;;;2.30;1.88;;;12.00;54.10;;;;;;5113609;28;20108;-66
2022/04/30 03:00:46;;;;;;;1.83;1.33;;;11.90;54.10;;;;;;5114344;28;20051;-67
2022/04/30 03:03:14;;;;;;;2.55;1.20;;;11.90;54.10;;;;;;5113009;28;20087;-63
2022/04/30 03:05:42;;;;;;;1.20;1.05;;;11.90;54.10;;;;;;5114433;28;20035;-67
2022/04/30 03:08:13;;;;;;;1.42;1.27;;;11.90;54.10;;;;;;5113312;28;20039;-62
2022/04/30 03:10:40;;;;;;;2.13;1.40;;;11.90;54.10;;;;;;5114327;28;20043;-63
2022/04/30 03:13:06;;;;;;;3.42;1.10;;;11.90;54.20;;;;;;5112857;28;20054;-66
2022/04/30 03:15:34;;;;;;;2.45;1.20;;;11.90;54.20;;;;;;5114546;28;20035;-67
2022/04/30 03:23:36;;;;;;;2.35;1.40;;;11.90;54.20;;;;;;5113804;28;20047;-66
2022/04/30 03:26:04;;;;;;;2.42;1.45;;;11.90;54.20;;;;;;5112990;28;20368;-69
2022/04/30 03:28:30;;;;;;;3.38;1.40;;;11.90;54.20;;;;;;5114099;28;20390;-64
2022/04/30 03:30:55;;;;;;;2.80;1.75;;;11.90;54.20;;;;;;5112970;28;20047;-69
2022/04/30 03:33:23;;;;;;;3.08;1.60;;;11.90;54.20;;;;;;5112837;28;20040;-65
2022/04/30 03:35:49;;;;;;;1.70;1.42;;;11.80;54.20;;;;;;5112974;28;20126;-67
2022/04/30 03:38:15;;;;;;;1.75;1.02;;;11.80;54.20;;;;;;5113613;28;20462;-69
2022/04/30 03:40:43;;;;;;;1.52;1.27;;;11.80;54.20;;;;;;5114023;28;20047;-69
2022/04/30 03:43:09;;;;;;;1.83;1.30;;;11.80;54.20;;;;;;5112369;28;20054;-69
2022/04/30 03:45:36;;;;;;;1.98;1.05;;;11.80;54.20;;;;;;5112617;28;20035;-69
2022/04/30 03:48:03;;;;;;;1.63;1.10;;;11.80;54.20;;;;;;5112243;28;20055;-65
2022/04/30 03:50:29;;;;;;;1.92;1.52;;;11.80;54.20;;;;;;5112263;28;20530;-64
2022/04/30 03:52:55;;;;;;;3.28;1.40;;;11.80;54.20;;;;;;5112192;28;20082;-65
2022/04/30 03:55:20;;;;;;;2.78;1.10;;;11.80;54.20;;;;;;5113337;28;20071;-65
2022/04/30 03:57:46;;;;;;;2.05;1.50;;;11.80;54.20;;;;;;5112378;28;20028;-69
2022/04/30 04:00:12;;;;;;;2.15;1.05;;;11.80;54.20;;;;;;5112971;28;20114;-69
2022/04/30 04:02:40;;;;;;;2.88;1.23;;;11.80;54.20;;;;;;5111678;28;20059;-67
2022/04/30 04:05:12;;;;;;;3.22;1.67;;;11.80;55.00;;;;;;5111873;28;20047;-69
2022/04/30 04:07:38;;;;;;;2.05;1.25;;;11.80;54.20;;;;;;5113062;28;20051;-64
2022/04/30 04:10:05;;;;;;;2.22;1.40;;;11.80;54.30;;;;;;5111760;28;20036;-69
2022/04/30 04:12:30;;;;;;;1.67;1.10;;;11.80;54.30;;;;;;5112068;28;20324;-65
2022/04/30 04:17:41;;;;;;;1.77;1.40;;;11.80;54.30;;;;;;5111642;28;20130;-65
2022/04/30 04:20:09;;;;;;;1.55;1.40;;;11.80;54.30;;;;;;5111864;28;20138;-69
2022/04/30 04:22:36;;;;;;;2.80;1.33;;;11.80;54.30;;;;;;5111465;28;20477;-70
2022/04/30 04:27:54;;;;;;;1.98;1.30;;;11.70;54.20;;;;;;5112720;28;20546;-67
2022/04/30 04:30:22;;;;;;;1.95;1.27;;;11.70;54.20;;;;;;5111698;28;20079;-67
2022/04/30 04:32:48;;;;;;;2.10;1.35;;;11.70;54.20;;;;;;5111098;28;20046;-69
2022/04/30 04:35:14;;;;;;;2.00;1.50;;;11.80;54.30;;;;;;5111367;28;20043;-69
2022/04/30 04:37:41;;;;;;;3.92;1.80;;;11.80;54.30;;;;;;5112864;28;20047;-64
2022/04/30 04:40:09;;;;;;;2.00;1.70;;;11.80;54.20;;;;;;5111577;28;20115;-69
2022/04/30 04:42:35;;;;;;;1.90;1.13;;;11.80;54.20;;;;;;5111289;28;20036;-65
2022/04/30 04:45:02;;;;;;;2.42;1.48;;;11.80;54.20;;;;;;5111213;28;20119;-66
2022/04/30 04:47:28;;;;;;;1.63;0.98;;;11.80;54.20;;;;;;5111530;28;20398;-64
2022/04/30 04:49:54;;;;;;;2.38;1.52;;;11.80;54.10;;;;;;5111205;28;20047;-67
2022/04/30 04:52:24;;;;;;;1.92;1.23;;;11.80;54.10;;;;;;5111272;28;20043;-64
2022/04/30 04:54:50;;;;;;;1.42;1.33;;;11.80;54.10;;;;;;5111513;28;20048;-65
2022/04/30 04:57:18;;;;;;;1.77;1.20;;;11.80;54.10;;;;;;5111122;28;20394;-66
2022/04/30 04:59:44;;;;;;;1.30;0.93;;;11.80;54.10;;;;;;5111189;28;20050;-71
2022/04/30 05:02:10;;;;;;;3.45;1.08;;;11.80;54.10;;;;;;5110947;28;20051;-66
2022/04/30 05:04:37;;;;;;;1.45;1.20;;;11.80;54.10;;;;;;5111111;28;20039;-69
2022/04/30 05:07:03;;;;;;;2.92;1.58;;;11.80;54.10;;;;;;5112746;28;20070;-67
2022/04/30 05:09:31;;;;;;;4.40;1.80;;;11.80;54.10;;;;;;5110366;28;20046;-68
2022/04/30 05:12:01;;;;;;;3.35;1.45;;;11.80;54.10;;;;;;5110912;28;20039;-69
2022/04/30 05:14:28;;;;;;;1.60;1.30;;;11.80;54.10;;;;;;5111370;28;20036;-66
2022/04/30 05:16:54;;;;;;;2.38;1.20;;;11.80;54.10;;;;;;5112138;28;20035;-65
2022/04/30 05:19:19;;;;;;;1.90;1.80;;;11.80;54.10;;;;;;5110914;28;20523;-65
2022/04/30 05:21:45;;;;;;;2.65;1.80;;;11.80;54.10;;;;;;5111022;28;20050;-69
2022/04/30 05:24:10;;;;;;;1.83;1.15;;;11.80;54.00;;;;;;5110967;28;20120;-71
2022/04/30 05:26:36;;;;;;;1.80;1.30;;;11.80;54.00;;;;;;5112293;28;20153;-69
2022/04/30 05:29:02;;;;;;;3.33;1.50;;;11.80;54.10;;;;;;5110896;28;20039;-67
2022/04/30 05:31:27;;;;;;;1.60;1.38;;;11.80;54.00;;;;;;5110771;28;20028;-68
2022/04/30 05:33:53;;;;;;;2.13;1.40;;;11.90;54.10;;;;;;5110978;28;20058;-69
2022/04/30 05:36:19;;;;;;;1.63;1.30;;;11.80;53.90;;;;;;5112057;28;20468;-69
2022/04/30 05:38:47;;;;;;;2.78;2.00;;;11.90;53.90;;;;;;5094183;28;20039;-69
2022/04/30 05:41:13;;;;;;;2.90;1.35;;;11.90;53.90;;;;;;5111015;28;20119;-64
2022/04/30 05:43:39;;;;;;;1.58;1.30;;;11.90;53.90;;;;;;5110703;28;20395;-65
2022/04/30 05:46:06;;;;;;;2.00;1.20;;;11.90;53.90;;;;;;5114328;28;20035;-64
2022/04/30 05:48:32;;;;;;;2.00;1.55;;;11.90;53.90;;;;;;5117165;28;20075;-69
2022/04/30 05:50:58;;;;;;;1.73;1.27;;;11.90;53.80;;;;;;5116228;28;20039;-64
2022/04/30 05:53:24;;;;;;;2.92;1.63;;;11.90;53.80;;;;;;5115258;28;20035;-69
2022/04/30 05:55:52;;;;;;;2.47;1.10;;;11.90;53.70;;;;;;5115119;28;20092;-67
2022/04/30 05:58:18;;;;;;;3.65;1.48;;;11.90;53.70;;;;;;5116081;28;20042;-65
2022/04/30 06:00:44;;;;;;;2.67;1.88;;;11.90;53.70;;;;;;5114994;28;20116;-65
2022/04/30 06:03:10;;;;;;;1.63;1.50;;;11.90;53.70;;;;;;5113924;28;20047;-66
2022/04/30 06:05:37;;;;;;;3.25;1.58;;;12.00;53.70;;;;;;5114239;28;20051;-69
2022/04/30 06:08:03;;;;;;;1.90;1.40;;;12.00;53.60;;;;;;5115611;28;20032;-65
2022/04/30 06:10:29;;;;;;;3.22;1.73;;;12.00;53.60;;;;;;5115506;28;20046;-71
2022/04/30 06:12:55;;;;;;;1.65;1.05;;;12.00;53.50;;;;;;5115318;28;20031;-65
2022/04/30 06:15:20;;;;;;;1.95;1.40;;;12.10;53.50;;;;;;5115388;28;20398;-65
2022/04/30 06:17:46;;;;;;;1.83;1.55;;;12.10;53.40;;;;;;5097017;28;20035;-69
2022/04/30 06:20:12;;;;;;;1.77;1.02;;;12.10;53.40;;;;;;5096912;28;20040;-69
2022/04/30 06:22:37;;;;;;;2.40;1.23;;;12.10;53.40;;;;;;5097091;28;20046;-65
2022/04/30 06:25:04;;;;;;;1.20;1.10;;;12.10;53.40;;;;;;5115222;28;20073;-66
2022/04/30 06:27:30;;;;;;;1.83;1.05;;;12.10;53.30;;;;;;5115077;28;20040;-66
2022/04/30 06:29:55;;;;;;;2.08;1.17;;;12.10;53.30;;;;;;5115054;28;20049;-66
2022/04/30 06:32:21;;;;;;;3.00;1.60;;;12.10;53.30;;;;;;5105840;28;20122;-69
2022/04/30 06:34:46;;;;;;;1.63;1.00;;;12.10;53.40;;;;;;5096812;28;20043;-69
2022/04/30 06:37:12;;;;;;;2.33;1.50;;;12.10;53.30;;;;;;5096752;28;20043;-65
2022/04/30 06:39:38;;;;;;;1.77;1.08;;;12.10;53.30;;;;;;5096488;28;20039;-69
2022/04/30 06:42:04;;;;;;;1.55;1.13;;;12.10;53.30;;;;;;5096497;28;20085;-64
2022/04/30 06:44:29;;;;;;;3.58;1.63;;;12.10;53.30;;;;;;5096821;28;20074;-64
2022/04/30 06:46:55;;;;;;;1.45;0.93;;;12.10;53.30;;;;;;5096549;28;20075;-65
2022/04/30 06:49:24;;;;;;;2.92;1.40;;;12.10;53.30;;;;;;5096586;28;20040;-64
2022/04/30 06:51:50;;;;;;;1.40;1.02;;;12.20;53.30;;;;;;5114642;28;20421;-66
2022/04/30 06:57:11;;;;;;;2.25;1.58;;;12.20;53.20;;;;;;5096096;28;20048;-64
2022/04/30 06:59:40;;;;;;;1.90;1.15;;;12.20;53.10;;;;;;5096252;28;20475;-64
2022/04/30 07:02:07;;;;;;;3.47;1.50;;;12.20;53.10;;;;;;5089923;28;20048;-64
2022/04/30 07:04:33;;;;;;;1.45;0.90;;;12.20;53.10;;;;;;5076129;28;20036;-64
2022/04/30 07:07:00;;;;;;;2.10;1.58;;;12.30;53.10;;;;;;5076057;28;20040;-65
2022/04/30 07:09:28;;;;;;;1.92;1.17;;;12.30;53.00;;;;;;5093816;28;20392;-69
2022/04/30 07:11:54;;;;;;;2.65;1.23;;;12.30;53.00;;;;;;5075837;28;20069;-65
2022/04/30 07:14:20;;;;;;;2.78;1.33;;;12.30;53.00;;;;;;5075595;28;20410;-65
2022/04/30 07:16:49;;;;;;;2.33;1.25;;;12.30;53.00;;;;;;5093648;28;20107;-64
2022/04/30 07:19:17;;;;;;;2.60;1.20;;;12.30;52.90;;;;;;5075672;28;20039;-69
2022/04/30 07:21:43;;;;;;;2.42;1.00;;;12.20;52.80;;;;;;5075284;28;20492;-69
2022/04/30 07:24:08;;;;;;;1.95;0.98;;;12.40;52.80;;;;;;5075368;28;20054;-69
2022/04/30 07:26:34;;;;;;;2.35;1.60;;;12.40;52.80;;;;;;5093593;28;20040;-65
2022/04/30 07:29:00;;;;;;;1.75;0.93;;;12.40;52.80;;;;;;5075603;28;20036;-65
2022/04/30 07:31:28;;;;;;;2.92;1.33;;;12.40;52.70;;;;;;5075529;28;20379;-69
2022/04/30 07:33:54;;;;;;;1.23;0.82;;;12.40;52.70;;;;;;5075386;28;20542;-67
2022/04/30 07:36:20;;;;;;;1.85;1.10;;;12.50;52.60;;;;;;5075140;28;20055;-69
2022/04/30 07:38:48;;;;;;;3.08;1.20;;;12.50;52.60;;;;;;5075467;28;20039;-71
2022/04/30 07:41:14;;;;;;;1.65;1.10;;;12.50;52.60;;;;;;5075100;28;20032;-64
2022/04/30 07:43:40;;;;;;;1.73;0.90;;;12.50;52.50;;;;;;5093170;28;20089;-68
2022/04/30 07:46:05;;;;;;;1.83;1.30;;;12.60;52.50;;;;;;5093070;28;20032;-65
2022/04/30 07:48:31;;;;;;;1.40;0.98;;;12.60;52.40;;;;;;5093054;28;20553;-69
2022/04/30 07:50:57;;;;;;;2.67;1.10;;;12.60;52.30;;;;;;5075190;28;20066;-69
2022/04/30 07:53:25;;;;;;;0.93;0.77;;;12.60;52.20;;;;;;5074932;28;20044;-68
2022/04/30 07:55:51;;;;;;;1.10;1.00;;;12.70;52.10;;;;;;5075052;28;20395;-69
2022/04/30 07:58:17;;;;;;;3.17;1.40;;;12.70;52.00;;;;;;5074808;28;20059;-68
2022/04/30 08:00:42;;;;;;;1.45;0.80;;;12.80;51.90;;;;;;5092941;28;20054;-67
2022/04/30 08:03:08;;;;;;;1.30;1.20;;;12.90;51.80;;;;;;5088757;28;20574;-66
2022/04/30 08:05:34;;;;;;;1.88;0.88;;;13.00;51.80;;;;;;5113409;28;20031;-64
2022/04/30 08:08:06;;;;;;;1.80;0.90;;;13.00;51.50;;;;;;5094074;28;20044;-65
2022/04/30 08:10:31;;;;;;;1.40;0.98;;;13.10;51.40;;;;;;5113433;28;20129;-69
2022/04/30 08:12:59;;;;;;;3.53;0.80;;;13.10;51.10;;;;;;5095002;28;20118;-68
2022/04/30 08:15:26;;;;;;;2.13;1.10;;;13.20;51.10;;;;;;5094866;28;20055;-66
2022/04/30 08:17:52;;;;;;;1.65;0.75;;;13.20;50.90;;;;;;5094884;28;20051;-64
2022/04/30 08:20:19;;;;;;;1.38;0.82;;;13.30;50.90;;;;;;5095011;28;20066;-68
2022/04/30 08:22:47;;;;;;;1.38;0.80;;;13.30;50.70;;;;;;5094415;28;20040;-64
2022/04/30 08:25:13;;;;;;;0.90;0.70;;;13.30;50.70;;;;;;5112987;28;20090;-69
2022/04/30 08:27:39;;;;;;;1.17;0.88;;;13.30;50.60;;;;;;5094805;28;20383;-68
2022/04/30 08:30:06;;;;;;;0.82;0.70;;;13.30;50.50;;;;;;5094841;28;20039;-65
2022/04/30 08:32:31;;;;;;;2.25;1.08;;;13.40;50.50;;;;;;5112543;28;20094;-64
2022/04/30 08:35:00;;;;;;;0.85;0.68;;;13.50;50.40;;;;;;5094404;28;20047;-65
2022/04/30 08:37:26;;;;;;;2.25;0.77;;;13.50;50.20;;;;;;5094658;28;20036;-69
2022/04/30 08:39:52;;;;;;;1.88;0.70;;;13.50;50.10;;;;;;5112713;28;20043;-65
2022/04/30 08:42:19;;;;;;;1.38;0.90;;;13.50;50.00;;;;;;5094293;28;20560;-68
2022/04/30 08:44:48;;;;;;;1.48;0.88;;;13.50;50.00;;;;;;5112473;28;20046;-69
2022/04/30 08:47:14;;;;;;;1.40;0.77;;;13.50;50.00;;;;;;5112520;28;20039;-65
2022/04/30 08:49:41;;;;;;;1.88;0.70;;;13.50;50.00;;;;;;5094171;28;20042;-69
2022/04/30 08:52:08;;;;;;;1.55;0.70;;;13.50;50.00;;;;;;5094457;28;20067;-69
2022/04/30 08:54:33;;;;;;;1.90;0.80;;;13.50;50.00;;;;;;5112444;28;20050;-69
2022/04/30 08:56:59;;;;;;;2.45;1.08;;;13.50;49.90;;;;;;5094347;28;20475;-64
2022/04/30 08:59:25;;;;;;;1.02;0.80;;;13.50;49.80;;;;;;5112364;28;20028;-69
2022/04/30 09:01:53;;;;;;;2.05;0.77;;;13.60;49.70;;;;;;5111942;28;20056;-69
2022/04/30 09:04:20;;;;;;;1.05;0.80;;;13.70;49.50;;;;;;5093981;28;20495;-69
2022/04/30 09:06:48;;;;;;;1.50;0.90;;;13.70;49.30;;;;;;5111647;28;20039;-69
2022/04/30 09:09:26;;;;;;;1.75;1.10;;;13.80;49.20;;;;;;5093954;28;20078;-65
2022/04/30 09:11:56;;;;;;;2.05;1.02;;;14.00;49.00;;;;;;5093949;28;20071;-68
2022/04/30 09:14:25;;;;;;;1.35;0.93;;;14.10;48.60;;;;;;5112174;28;20071;-69
2022/04/30 09:17:09;;;;;;;1.77;0.93;;;14.20;48.30;;;;;;5094238;28;20206;-69
2022/04/30 09:19:56;;;;;;;1.38;0.80;;;14.30;48.10;;;;;;5096878;28;20112;-67
2022/04/30 09:22:31;;;;;;;1.13;0.82;;;14.50;47.80;;;;;;5098163;28;20055;-69
2022/04/30 09:24:58;;;;;;;1.40;0.73;;;14.60;47.40;;;;;;5116285;28;20059;-69
2022/04/30 09:27:24;;;;;;;1.50;0.70;;;14.70;47.20;;;;;;5098550;28;20035;-64
2022/04/30 09:29:50;;;;;;;1.20;0.85;;;14.80;47.00;;;;;;5116444;28;20078;-70
2022/04/30 09:32:21;;;;;;;2.25;0.90;;;14.80;47.00;;;;;;5098171;28;20075;-68
2022/04/30 09:37:45;;;;;;;1.70;0.70;;;14.60;47.20;;;;;;5115803;28;20097;-66
2022/04/30 09:42:54;;;;;;;1.50;1.05;;;14.60;47.30;;;;;;5130332;27;20960;-67
2022/04/30 09:45:32;;;;;;;1.10;0.82;;;14.60;47.20;;;;;;5111725;28;20055;-66
2022/04/30 09:48:00;;;;;;;1.25;0.75;;;14.60;47.30;;;;;;5128864;28;20050;-68
2022/04/30 09:56:06;;;;;;;1.40;0.73;;;14.30;47.60;;;;;;5128779;28;20047;-67
2022/04/30 09:58:38;;;;;;;2.28;0.88;;;14.30;47.70;;;;;;5128618;28;20082;-62
2022/04/30 10:01:05;;;;;;;2.08;0.77;;;14.40;47.80;;;;;;5129885;27;20118;-67
2022/04/30 10:03:33;;;;;;;1.08;0.60;;;14.30;47.70;;;;;;5130084;27;20058;-63
2022/04/30 10:06:04;;;;;;;2.53;1.13;;;14.40;47.70;;;;;;5146040;27;20048;-63
2022/04/30 10:08:31;;;;;;;;;;;14.40;47.60;;;;;;5129010;28;20043;-67
2022/04/30 10:11:36;;;;;;;1.80;0.77;;;14.40;47.70;;;;;;5127698;28;19962;-64
2022/04/30 10:20:00;;;;;;;1.33;1.08;;;14.60;47.40;;;;;;5130298;27;20350;-69
2022/04/30 10:22:29;;;;;;;1.73;0.93;;;14.60;47.50;;;;;;5128886;28;20508;-65
2022/04/30 10:24:57;;;;;;;1.02;0.75;;;14.50;47.60;;;;;;5128994;28;20031;-69
2022/04/30 10:27:44;;;;;;;1.42;1.25;;;14.40;47.60;;;;;;5129199;28;20391;-65
2022/04/30 10:30:27;;;;;;;1.30;0.90;;;14.40;47.80;;;;;;5129111;28;20041;-69
2022/04/30 10:32:59;;;;;;;1.38;0.80;;;14.30;47.80;;;;;;5128813;28;20035;-69
2022/04/30 10:38:10;;;;;;;2.20;0.77;;;14.30;47.90;;;;;;5152664;27;1167241;-67
2022/04/30 10:40:49;;;;;;;2.78;0.90;;;14.20;48.00;;;;;;5153110;27;20046;-66
2022/04/30 10:45:56;;;;;;;1.15;0.80;;;14.20;48.30;;;;;;5130472;27;20353;-66
2022/04/30 10:48:25;;;;;;;1.95;1.10;;;14.10;48.30;;;;;;5128532;27;20038;-63
2022/04/30 10:53:47;;;;;;;2.30;0.90;;;14.10;48.30;;;;;;5130149;27;20379;-63
2022/04/30 10:56:14;;;;;;;1.13;0.73;;;14.10;48.40;;;;;;5112074;28;20126;-62
2022/04/30 10:58:42;;;;;;;2.05;0.90;;;14.10;48.30;;;;;;5128860;28;20053;-64
2022/04/30 11:01:16;;;;;;;1.35;0.80;;;14.10;48.30;;;;;;5128953;28;20132;-67
2022/04/30 11:03:43;;;;;;;1.00;0.80;;;14.10;48.40;;;;;;5130015;27;20075;-66
2022/04/30 11:06:11;;;;;;;1.33;0.90;;;14.10;48.40;;;;;;5129113;28;20072;-64
2022/04/30 11:08:37;;;;;;;1.35;0.88;;;14.10;48.40;;;;;;5130015;27;20092;-64
2022/04/30 11:11:03;;;;;;;0.93;0.75;;;14.10;48.40;;;;;;5128678;28;20040;-70
2022/04/30 11:13:29;;;;;;;1.45;0.80;;;14.00;48.40;;;;;;5128520;28;20050;-65
2022/04/30 11:15:59;;;;;;;1.23;0.75;;;14.00;48.40;;;;;;5128911;27;20125;-67
2022/04/30 11:18:25;;;;;;;2.10;0.90;;;14.00;48.40;;;;;;5128692;28;20093;-64
2022/04/30 11:20:59;;;;;;;1.45;1.30;;;14.00;48.40;;;;;;5130112;27;20065;-69
2022/04/30 11:23:25;;;;;;;2.45;0.80;;;14.00;48.50;;;;;;5128415;28;20043;-64
2022/04/30 11:25:50;;;;;;;1.50;0.88;;;14.00;48.50;;;;;;5129738;28;20058;-69
2022/04/30 11:28:19;;;;;;;1.15;0.68;;;14.00;48.50;;;;;;5129674;28;20142;-69
2022/04/30 11:30:46;;;;;;;1.77;0.80;;;14.00;48.40;;;;;;5129555;28;20032;-64
2022/04/30 11:33:12;;;;;;;1.60;1.05;;;14.00;48.50;;;;;;5129384;27;20081;-64
2022/04/30 11:35:38;;;;;;;1.48;1.00;;;14.00;48.50;;;;;;5129534;27;20487;-64
2022/04/30 11:38:09;;;;;;;1.30;0.95;;;14.00;48.50;;;;;;5128285;28;20035;-68
2022/04/30 11:40:35;;;;;;;;;;;14.00;48.50;;;;;;5128654;28;20039;-63
2022/04/30 11:43:02;;;;;;;2.25;0.93;;;14.00;48.50;;;;;;5129847;27;19915;-68
2022/04/30 11:45:31;;;;;;;1.45;0.90;;;14.00;48.50;;;;;;5128245;28;20372;-66
2022/04/30 11:47:57;;;;;;;2.60;0.85;;;14.10;48.50;;;;;;5128317;28;20096;-68
2022/04/30 11:50:24;;;;;;;2.47;0.80;;;14.00;48.40;;;;;;5145144;27;20567;-64
2022/04/30 11:52:50;;;;;;;1.33;0.80;;;14.00;48.40;;;;;;5127645;28;20047;-70
2022/04/30 11:55:17;;;;;;;1.98;1.10;;;14.10;48.40;;;;;;5128061;28;20127;-64
2022/04/30 11:57:43;;;;;;;1.05;0.63;;;14.10;48.40;;;;;;5129098;27;20498;-69
2022/04/30 12:00:11;;;;;;;1.27;0.90;;;14.10;48.40;;;;;;5128944;27;20040;-68
2022/04/30 12:02:39;;;;;;;1.17;0.75;;;14.10;48.30;;;;;;5127777;28;20043;-65
2022/04/30 12:05:06;;;;;;;1.15;0.82;;;14.10;48.30;;;;;;5114067;28;20050;-64
2022/04/30 12:07:47;;;;;;;1.73;0.70;;;14.10;48.30;;;;;;5115411;28;20036;-71
2022/04/30 12:10:15;;;;;;;;;;;14.10;48.20;;;;;;5115550;28;20122;-66
2022/04/30 12:12:40;;;;;;;1.48;0.93;;;14.10;48.20;;;;;;5130956;27;19919;-68
2022/04/30 12:15:17;;;;;;;1.00;0.77;;;14.10;48.20;;;;;;5114926;28;20043;-68
2022/04/30 12:17:42;;;;;;;2.28;1.13;;;14.10;48.20;;;;;;5131224;27;20094;-68
2022/04/30 12:25:49;;;;;;;1.63;0.82;;;14.20;48.20;;;;;;5114644;28;20549;-63
2022/04/30 12:28:15;;;;;;;1.48;0.93;;;14.20;48.20;;;;;;5113898;28;20039;-68
2022/04/30 12:30:50;;;;;;;1.58;0.90;;;14.20;48.10;;;;;;5113704;28;20043;-68
2022/04/30 12:33:16;;;;;;;2.13;1.38;;;14.20;48.10;;;;;;5113503;28;20048;-64
2022/04/30 12:35:42;;;;;;;1.52;1.10;;;14.10;48.20;;;;;;5114672;28;20040;-64
2022/04/30 12:40:50;;;;;;;1.45;0.70;;;14.10;48.20;;;;;;5152751;27;1166104;-62
2022/04/30 12:43:17;;;;;;;2.40;0.85;;;14.10;48.30;;;;;;5171961;27;20043;-65
2022/04/30 12:45:44;;;;;;;2.17;0.88;;;14.10;48.30;;;;;;5153281;27;20435;-63
2022/04/30 12:48:10;;;;;;;1.98;0.90;;;14.10;48.30;;;;;;5171685;27;20098;-67
2022/04/30 12:50:37;;;;;;;2.50;1.15;;;14.20;48.40;;;;;;5152890;27;20069;-68
2022/04/30 12:53:03;;;;;;;1.02;0.82;;;14.10;48.40;;;;;;5153195;27;20076;-62
2022/04/30 12:55:30;;;;;;;1.40;0.65;;;14.10;48.50;;;;;;5135926;27;20077;-64
2022/04/30 12:57:55;;;;;;;2.58;1.05;;;14.10;48.50;;;;;;5152988;27;20051;-62
2022/04/30 13:00:21;;;;;;;1.17;0.68;;;14.20;48.50;;;;;;5171614;27;20031;-62
2022/04/30 13:02:47;;;;;;;2.70;1.30;;;14.10;48.60;;;;;;5153024;27;20121;-62
2022/04/30 13:05:13;;;;;;;1.50;0.90;;;14.10;48.60;;;;;;5153026;27;20038;-68
2022/04/30 13:07:41;;;;;;;3.13;1.10;;;14.10;48.60;;;;;;5171309;27;20057;-62
2022/04/30 13:15:41;;;;;;;1.45;1.13;;;14.20;48.50;;;;;;5171039;27;20047;-68
2022/04/30 13:18:07;;;;;;;1.60;1.10;;;14.20;48.50;;;;;;5152292;27;20038;-65
2022/04/30 13:20:35;;;;;;;1.10;0.77;;;14.20;48.50;;;;;;5152369;27;20038;-63
2022/04/30 13:23:01;;;;;;;1.48;0.75;;;14.20;48.50;;;;;;5152255;27;20121;-62
2022/04/30 13:25:28;;;;;;;1.58;1.08;;;14.20;48.50;;;;;;5170991;27;20074;-65
2022/04/30 13:27:55;;;;;;;1.27;0.68;;;14.20;48.50;;;;;;5152468;27;20050;-64
2022/04/30 13:30:22;;;;;;;1.20;0.88;;;14.20;48.50;;;;;;5170887;27;20114;-67
2022/04/30 13:32:48;;;;;;;2.88;0.90;;;14.20;48.50;;;;;;5170758;27;20561;-62
2022/04/30 13:35:16;;;;;;;1.60;0.82;;;14.20;48.50;;;;;;5152410;27;20497;-62
2022/04/30 13:37:42;;;;;;;1.02;0.77;;;14.20;48.50;;;;;;5170865;27;20031;-63
2022/04/30 13:40:12;;;;;;;1.67;0.88;;;14.20;48.50;;;;;;5170473;27;20053;-62
2022/04/30 13:42:38;;;;;;;1.10;0.70;;;14.20;48.50;;;;;;5151902;27;20038;-63
2022/04/30 13:45:05;;;;;;;1.45;0.90;;;14.20;48.50;;;;;;5152253;27;20160;-66
2022/04/30 13:47:31;;;;;;;1.30;0.68;;;14.20;48.50;;;;;;5151670;27;20512;-67
2022/04/30 13:49:59;;;;;;;1.20;0.80;;;14.20;48.50;;;;;;5151060;27;20039;-66